createdAt,value
2017-09-26T00:00:15.509Z,12.70
2017-09-26T00:02:43.068Z,12.80
2017-09-26T00:05:10.655Z,13.30
2017-09-26T00:07:38.245Z,13.40
2017-09-26T00:10:06.565Z,12.27
2017-09-26T00:12:34.114Z,13.40
2017-09-26T00:15:01.809Z,12.37
2017-09-26T00:17:29.584Z,12.23
2017-09-26T00:19:57.923Z,13.30
2017-09-26T00:22:25.541Z,13.10
2017-09-26T00:24:53.110Z,13.27
2017-09-26T00:27:21.443Z,12.90
2017-09-26T00:29:49.046Z,13.40
2017-09-26T00:32:17.407Z,12.83
2017-09-26T00:34:44.983Z,13.40
2017-09-26T00:37:12.560Z,13.40
2017-09-26T00:39:40.886Z,13.40
2017-09-26T00:42:08.461Z,14.00
2017-09-26T00:44:36.053Z,14.00
2017-09-26T00:47:09.801Z,13.13
2017-09-26T00:49:37.681Z,14.10
2017-09-26T00:52:05.239Z,13.53
2017-09-26T00:54:32.870Z,14.13
2017-09-26T00:57:01.173Z,14.40
2017-09-26T00:59:28.777Z,13.20
2017-09-26T01:01:56.363Z,13.27
2017-09-26T01:04:24.883Z,14.80
2017-09-26T01:06:55.081Z,13.27
2017-09-26T01:09:23.552Z,14.40
2017-09-26T01:11:51.139Z,14.13
2017-09-26T01:14:19.469Z,14.20
2017-09-26T01:16:47.048Z,13.37
2017-09-26T01:19:15.486Z,13.80
2017-09-26T01:21:43.131Z,13.70
2017-09-26T01:24:10.673Z,13.60
2017-09-26T01:26:38.274Z,14.00
2017-09-26T01:29:05.819Z,14.33
2017-09-26T01:31:34.123Z,14.73
2017-09-26T01:34:02.460Z,13.90
2017-09-26T01:36:30.044Z,13.53
2017-09-26T01:38:57.614Z,14.10
2017-09-26T01:41:25.193Z,13.90
2017-09-26T01:43:53.546Z,13.47
2017-09-26T01:46:21.155Z,14.27
2017-09-26T01:48:48.712Z,13.30
2017-09-26T01:51:17.230Z,14.50
2017-09-26T01:53:44.802Z,13.27
2017-09-26T01:56:13.333Z,12.90
2017-09-26T01:58:46.561Z,13.63
2017-09-26T02:01:14.141Z,13.67
2017-09-26T02:03:41.726Z,12.90
2017-09-26T02:06:09.409Z,13.40
2017-09-26T02:08:36.971Z,13.03
2017-09-26T02:11:04.584Z,12.63
2017-09-26T02:13:32.143Z,12.00
2017-09-26T02:16:00.497Z,12.97
2017-09-26T02:18:28.076Z,12.43
2017-09-26T02:20:56.420Z,13.47
2017-09-26T02:23:23.974Z,13.90
2017-09-26T02:25:51.539Z,12.60
2017-09-26T02:28:19.112Z,11.80
2017-09-26T02:30:46.691Z,13.20
2017-09-26T02:33:14.300Z,13.13
2017-09-26T02:35:41.854Z,12.93
2017-09-26T02:38:09.446Z,14.13
2017-09-26T02:40:37.017Z,12.30
2017-09-26T02:43:04.604Z,12.90
2017-09-26T02:45:32.980Z,13.87
2017-09-26T02:48:01.313Z,13.57
2017-09-26T02:50:28.912Z,12.60
2017-09-26T02:52:57.251Z,13.90
2017-09-26T02:55:24.821Z,14.27
2017-09-26T02:57:52.397Z,13.57
2017-09-26T03:00:19.979Z,12.93
2017-09-26T03:02:47.578Z,12.70
2017-09-26T03:05:15.147Z,12.70
2017-09-26T03:07:42.727Z,14.63
2017-09-26T03:10:10.315Z,14.67
2017-09-26T03:12:38.648Z,14.17
2017-09-26T03:15:06.259Z,13.60
2017-09-26T03:17:34.585Z,14.60
2017-09-26T03:20:02.139Z,14.20
2017-09-26T03:22:29.705Z,13.63
2017-09-26T03:24:57.252Z,13.60
2017-09-26T03:27:24.825Z,13.73
2017-09-26T03:29:52.381Z,13.17
2017-09-26T03:32:19.947Z,12.93
2017-09-26T03:34:47.562Z,14.00
2017-09-26T03:37:15.939Z,15.50
2017-09-26T03:39:43.498Z,15.07
2017-09-26T03:42:11.858Z,14.13
2017-09-26T03:44:39.449Z,14.37
2017-09-26T03:47:07.003Z,13.17
2017-09-26T03:49:34.611Z,14.73
2017-09-26T03:52:02.174Z,13.40
2017-09-26T03:54:29.769Z,13.70
2017-09-26T03:56:58.114Z,15.40
2017-09-26T03:59:25.691Z,15.50
2017-09-26T04:01:53.233Z,14.43
2017-09-26T04:04:20.792Z,13.43
2017-09-26T04:06:48.365Z,13.90
2017-09-26T04:09:15.967Z,13.20
2017-09-26T04:11:43.533Z,12.57
2017-09-26T04:14:11.088Z,12.37
2017-09-26T04:16:38.685Z,12.20
2017-09-26T04:19:06.252Z,13.10
2017-09-26T04:21:33.832Z,13.60
2017-09-26T04:24:01.394Z,13.20
2017-09-26T04:26:28.961Z,12.57
2017-09-26T04:28:57.306Z,13.50
2017-09-26T04:31:24.910Z,17.30
2017-09-26T04:33:53.278Z,17.20
2017-09-26T04:36:21.633Z,18.20
2017-09-26T04:38:49.184Z,17.93
2017-09-26T04:41:16.738Z,17.47
2017-09-26T04:43:44.301Z,15.07
2017-09-26T04:46:11.853Z,14.90
2017-09-26T04:48:39.449Z,12.50
2017-09-26T04:51:06.989Z,13.70
2017-09-26T04:53:34.544Z,14.30
2017-09-26T04:56:02.083Z,14.87
2017-09-26T04:58:29.683Z,14.43
2017-09-26T05:00:57.275Z,14.70
2017-09-26T05:03:25.645Z,17.93
2017-09-26T05:05:53.978Z,18.20
2017-09-26T05:08:21.578Z,19.00
2017-09-26T05:10:49.961Z,18.13
2017-09-26T05:13:17.545Z,16.37
2017-09-26T05:15:45.105Z,16.13
2017-09-26T05:18:12.685Z,14.50
2017-09-26T05:20:40.236Z,15.27
2017-09-26T05:23:07.792Z,15.20
2017-09-26T05:25:35.366Z,15.30
2017-09-26T05:28:02.949Z,15.37
2017-09-26T05:30:30.533Z,15.53
2017-09-26T05:32:58.117Z,14.60
2017-09-26T05:35:26.552Z,14.80
2017-09-26T05:37:54.102Z,15.10
2017-09-26T05:40:21.669Z,14.27
2017-09-26T05:42:49.268Z,15.00
2017-09-26T05:45:16.923Z,15.67
2017-09-26T05:47:45.317Z,15.33
2017-09-26T05:50:12.884Z,16.17
2017-09-26T05:52:40.472Z,16.57
2017-09-26T05:55:08.074Z,15.47
2017-09-26T05:57:35.665Z,15.13
2017-09-26T06:00:03.261Z,15.33
2017-09-26T06:02:30.858Z,15.93
2017-09-26T06:04:58.440Z,15.47
2017-09-26T06:07:26.019Z,15.60
2017-09-26T06:09:53.584Z,17.53
2017-09-26T06:12:21.173Z,16.83
2017-09-26T06:14:48.739Z,20.43
2017-09-26T06:17:16.340Z,18.73
2017-09-26T06:19:43.913Z,19.53
2017-09-26T06:22:11.539Z,21.07
2017-09-26T06:24:39.104Z,19.17
2017-09-26T06:27:07.435Z,19.80
2017-09-26T06:29:34.995Z,20.80
2017-09-26T06:32:02.557Z,20.77
2017-09-26T06:34:30.138Z,23.20
2017-09-26T06:36:57.709Z,21.50
2017-09-26T06:39:25.273Z,20.73
2017-09-26T06:41:52.853Z,19.60
2017-09-26T06:44:21.199Z,20.70
2017-09-26T06:46:48.759Z,22.23
2017-09-26T06:49:16.343Z,21.07
2017-09-26T06:51:44.678Z,21.83
2017-09-26T06:54:12.221Z,21.07
2017-09-26T06:56:39.815Z,22.10
2017-09-26T06:59:07.397Z,21.00
2017-09-26T07:01:35.732Z,21.63
2017-09-26T07:04:03.329Z,21.67
2017-09-26T07:06:30.929Z,24.80
2017-09-26T07:08:58.495Z,24.13
2017-09-26T07:11:26.070Z,22.87
2017-09-26T07:13:53.654Z,25.37
2017-09-26T07:16:21.266Z,23.70
2017-09-26T07:18:48.856Z,22.97
2017-09-26T07:21:16.441Z,22.00
2017-09-26T07:23:44.105Z,22.50
2017-09-26T07:26:11.661Z,22.00
2017-09-26T07:28:39.279Z,22.60
2017-09-26T07:31:07.068Z,24.00
2017-09-26T07:33:34.786Z,22.63
2017-09-26T07:36:03.137Z,22.50
2017-09-26T07:38:30.711Z,22.40
2017-09-26T07:40:59.041Z,19.77
2017-09-26T07:43:26.636Z,22.47
2017-09-26T07:45:54.215Z,24.53
2017-09-26T07:48:22.559Z,23.57
2017-09-26T07:50:50.125Z,22.13
2017-09-26T07:53:17.715Z,21.50
2017-09-26T07:55:46.049Z,21.97
2017-09-26T07:58:13.653Z,21.90
2017-09-26T08:00:42.287Z,23.03
2017-09-26T08:03:09.848Z,21.30
2017-09-26T08:05:37.770Z,21.87
2017-09-26T08:08:06.427Z,22.57
2017-09-26T08:10:33.997Z,23.73
2017-09-26T08:13:01.583Z,23.57
2017-09-26T08:15:29.163Z,22.40
2017-09-26T08:17:56.758Z,22.87
2017-09-26T08:20:24.327Z,22.80
2017-09-26T08:22:51.916Z,23.43
2017-09-26T08:25:19.488Z,22.40
2017-09-26T08:27:47.120Z,23.17
2017-09-26T08:30:14.698Z,22.47
2017-09-26T08:32:42.307Z,26.20
2017-09-26T08:35:09.911Z,23.40
2017-09-26T08:37:37.531Z,21.53
2017-09-26T08:40:05.107Z,21.40
2017-09-26T08:42:32.673Z,20.77
2017-09-26T08:45:00.226Z,20.20
2017-09-26T08:47:27.781Z,20.87
2017-09-26T08:49:55.326Z,20.13
2017-09-26T08:52:22.889Z,20.10
2017-09-26T08:54:50.457Z,19.70
2017-09-26T08:57:18.050Z,19.37
2017-09-26T08:59:46.388Z,19.87
2017-09-26T09:02:13.923Z,19.53
2017-09-26T09:04:41.496Z,19.90
2017-09-26T09:07:09.082Z,19.67
2017-09-26T09:09:36.652Z,18.90
2017-09-26T09:12:04.217Z,19.47
2017-09-26T09:14:31.790Z,19.27
2017-09-26T09:17:00.141Z,20.57
2017-09-26T09:19:27.729Z,18.90
2017-09-26T09:21:56.125Z,19.73
2017-09-26T09:24:23.717Z,18.57
2017-09-26T09:26:51.321Z,19.30
2017-09-26T09:29:18.883Z,18.10
2017-09-26T09:31:46.475Z,22.23
2017-09-26T09:34:14.037Z,23.50
2017-09-26T09:36:41.610Z,24.07
2017-09-26T09:39:09.950Z,23.67
2017-09-26T09:41:38.291Z,24.60
2017-09-26T09:44:05.874Z,24.70
2017-09-26T09:46:33.434Z,25.23
2017-09-26T09:49:01.030Z,19.10
2017-09-26T09:51:28.606Z,17.83
2017-09-26T09:53:56.170Z,23.40
2017-09-26T09:56:23.765Z,23.40
2017-09-26T09:58:51.456Z,24.23
2017-09-26T10:01:19.799Z,23.17
2017-09-26T10:03:47.470Z,23.63
2017-09-26T10:06:15.038Z,24.20
2017-09-26T10:08:42.601Z,26.43
2017-09-26T10:11:10.160Z,25.30
2017-09-26T10:13:37.718Z,24.40
2017-09-26T10:16:05.290Z,56.40
2017-09-26T10:18:33.656Z,24.77
2017-09-26T10:21:01.236Z,25.60
2017-09-26T10:23:29.569Z,23.37
2017-09-26T10:25:57.154Z,24.00
2017-09-26T10:28:24.739Z,22.43
2017-09-26T10:30:53.101Z,22.90
2017-09-26T10:33:20.649Z,22.53
2017-09-26T10:35:48.231Z,23.33
2017-09-26T10:38:16.574Z,20.80
2017-09-26T10:40:44.211Z,20.50
2017-09-26T10:43:11.751Z,19.53
2017-09-26T10:45:39.326Z,20.20
2017-09-26T10:48:06.922Z,21.73
2017-09-26T10:50:34.473Z,19.97
2017-09-26T10:53:02.041Z,20.60
2017-09-26T10:55:29.595Z,19.77
2017-09-26T10:57:57.164Z,19.10
2017-09-26T11:00:24.736Z,19.20
2017-09-26T11:02:52.320Z,18.03
2017-09-26T11:05:20.663Z,19.83
2017-09-26T11:07:48.237Z,18.30
2017-09-26T11:10:15.800Z,17.03
2017-09-26T11:12:43.399Z,16.80
2017-09-26T11:15:10.966Z,16.70
2017-09-26T11:17:38.539Z,16.43
2017-09-26T11:20:06.927Z,17.30
2017-09-26T11:22:34.492Z,16.87
2017-09-26T11:25:02.037Z,14.60
2017-09-26T11:27:29.605Z,14.43
2017-09-26T11:29:57.984Z,16.20
2017-09-26T11:32:25.539Z,15.87
2017-09-26T11:34:53.105Z,17.00
2017-09-26T11:37:20.685Z,18.03
2017-09-26T11:39:48.241Z,19.67
2017-09-26T11:42:15.805Z,18.00
2017-09-26T11:44:43.354Z,47.27
2017-09-26T11:47:10.941Z,19.03
2017-09-26T11:49:38.507Z,19.07
2017-09-26T11:52:06.065Z,16.40
2017-09-26T11:54:33.651Z,17.10
2017-09-26T11:57:01.959Z,17.90
2017-09-26T11:59:29.691Z,17.03
2017-09-26T12:01:57.362Z,16.17
2017-09-26T12:04:24.945Z,18.10
2017-09-26T12:06:52.518Z,19.00
2017-09-26T12:09:20.131Z,17.70
2017-09-26T12:11:48.436Z,17.87
2017-09-26T12:14:16.019Z,16.80
2017-09-26T12:16:43.562Z,18.57
2017-09-26T12:19:11.144Z,18.33
2017-09-26T12:21:38.686Z,20.17
2017-09-26T12:24:06.266Z,19.53
2017-09-26T12:26:33.836Z,19.50
2017-09-26T12:29:01.414Z,20.43
2017-09-26T12:31:29.011Z,19.30
2017-09-26T12:33:56.609Z,18.33
2017-09-26T12:36:24.203Z,18.00
2017-09-26T12:38:52.542Z,19.90
2017-09-26T12:41:20.095Z,21.60
2017-09-26T12:43:47.681Z,20.63
2017-09-26T12:46:15.259Z,22.57
2017-09-26T12:48:43.630Z,20.17
2017-09-26T12:51:11.199Z,19.43
2017-09-26T12:53:39.527Z,19.70
2017-09-26T12:56:07.080Z,20.97
2017-09-26T12:58:34.653Z,20.70
2017-09-26T13:01:02.201Z,19.17
2017-09-26T13:03:29.761Z,17.87
2017-09-26T13:05:57.341Z,19.57
2017-09-26T13:08:24.939Z,18.27
2017-09-26T13:10:52.517Z,20.17
2017-09-26T13:13:20.846Z,19.67
2017-09-26T13:15:48.400Z,20.40
2017-09-26T13:18:15.962Z,17.93
2017-09-26T13:20:43.525Z,17.60
2017-09-26T13:23:11.140Z,17.73
2017-09-26T13:25:39.475Z,18.00
2017-09-26T13:28:07.053Z,18.10
2017-09-26T13:30:34.609Z,19.00
2017-09-26T13:33:02.219Z,18.70
2017-09-26T13:35:29.807Z,18.13
2017-09-26T13:37:57.394Z,21.77
2017-09-26T13:40:25.087Z,20.47
2017-09-26T13:42:52.614Z,18.23
2017-09-26T13:45:20.191Z,20.77
2017-09-26T13:47:48.498Z,18.60
2017-09-26T13:50:16.076Z,17.20
2017-09-26T13:52:43.634Z,17.13
2017-09-26T13:55:11.194Z,16.00
2017-09-26T13:57:38.806Z,17.70
2017-09-26T14:00:07.177Z,18.90
2017-09-26T14:02:34.750Z,15.97
2017-09-26T14:05:03.076Z,17.87
2017-09-26T14:07:30.669Z,16.33
2017-09-26T14:09:58.241Z,17.90
2017-09-26T14:12:25.806Z,15.97
2017-09-26T14:14:53.385Z,16.37
2017-09-26T14:17:20.989Z,18.33
2017-09-26T14:19:48.650Z,15.93
2017-09-26T14:22:16.214Z,16.70
2017-09-26T14:24:43.819Z,16.67
2017-09-26T14:27:12.160Z,16.93
2017-09-26T14:29:39.775Z,12.70
2017-09-26T14:32:07.377Z,13.47
2017-09-26T14:34:34.950Z,13.40
2017-09-26T14:37:02.560Z,14.57
2017-09-26T14:39:30.133Z,14.17
2017-09-26T14:41:57.779Z,15.60
2017-09-26T14:44:25.340Z,14.90
2017-09-26T14:46:52.930Z,16.00
2017-09-26T14:49:20.524Z,15.37
2017-09-26T14:51:48.880Z,14.50
2017-09-26T14:54:16.493Z,14.07
2017-09-26T14:56:44.892Z,14.40
2017-09-26T14:59:12.479Z,13.10
2017-09-26T15:01:40.047Z,14.33
2017-09-26T15:04:07.633Z,14.77
2017-09-26T15:06:35.991Z,12.87
2017-09-26T15:09:03.589Z,12.10
2017-09-26T15:11:31.222Z,14.70
2017-09-26T15:13:58.844Z,13.30
2017-09-26T15:16:26.431Z,15.87
2017-09-26T15:18:53.994Z,12.80
2017-09-26T15:21:21.563Z,13.07
2017-09-26T15:23:49.199Z,13.30
2017-09-26T15:26:16.838Z,12.97
2017-09-26T15:28:44.413Z,14.53
2017-09-26T15:31:11.993Z,12.40
2017-09-26T15:33:39.619Z,13.30
2017-09-26T15:36:07.209Z,12.53
2017-09-26T15:38:34.819Z,11.73
2017-09-26T15:41:02.420Z,11.60
2017-09-26T15:43:29.974Z,12.10
2017-09-26T15:45:57.554Z,13.27
2017-09-26T15:48:25.124Z,13.77
2017-09-26T15:50:52.683Z,13.83
2017-09-26T15:53:20.275Z,15.20
2017-09-26T15:55:48.619Z,13.73
2017-09-26T15:58:16.203Z,12.10
2017-09-26T16:00:44.591Z,14.23
2017-09-26T16:03:12.940Z,12.30
2017-09-26T16:05:40.515Z,13.90
2017-09-26T16:08:08.090Z,13.47
2017-09-26T16:10:36.428Z,16.80
2017-09-26T16:13:04.036Z,18.50
2017-09-26T16:15:32.378Z,19.37
2017-09-26T16:17:59.974Z,18.97
2017-09-26T16:20:28.306Z,21.10
2017-09-26T16:22:55.896Z,20.33
2017-09-26T16:25:23.506Z,19.63
2017-09-26T16:27:51.085Z,20.50
2017-09-26T16:30:18.674Z,21.93
2017-09-26T16:32:46.266Z,20.27
2017-09-26T16:35:13.870Z,19.73
2017-09-26T16:37:41.433Z,19.57
2017-09-26T16:40:08.991Z,20.03
2017-09-26T16:42:36.542Z,20.33
2017-09-26T16:45:04.132Z,21.00
2017-09-26T16:47:31.715Z,20.90
2017-09-26T16:50:00.043Z,21.70
2017-09-26T16:52:27.606Z,23.70
2017-09-26T16:54:55.187Z,21.30
2017-09-26T16:57:22.774Z,21.53
2017-09-26T16:59:51.097Z,22.60
2017-09-26T17:02:19.448Z,21.70
2017-09-26T17:04:47.004Z,23.23
2017-09-26T17:07:14.554Z,28.23
2017-09-26T17:09:42.901Z,21.63
2017-09-26T17:12:10.466Z,21.57
2017-09-26T17:14:38.065Z,23.20
2017-09-26T17:17:05.614Z,24.70
2017-09-26T17:19:33.942Z,24.20
2017-09-26T17:22:01.510Z,20.07
2017-09-26T17:24:29.075Z,19.10
2017-09-26T17:29:50.850Z,18.27
2017-09-26T17:32:18.504Z,20.00
2017-09-26T17:34:48.807Z,19.70
2017-09-26T17:37:17.165Z,19.63
2017-09-26T17:39:45.501Z,18.67
2017-09-26T17:42:13.061Z,16.90
2017-09-26T17:44:40.623Z,17.17
2017-09-26T17:47:08.227Z,17.87
2017-09-26T17:49:36.570Z,17.10
2017-09-26T17:52:04.169Z,18.10
2017-09-26T17:54:31.732Z,17.87
2017-09-26T17:56:59.302Z,17.87
2017-09-26T17:59:26.879Z,18.47
2017-09-26T18:01:54.478Z,18.17
2017-09-26T18:04:22.867Z,18.17
2017-09-26T18:06:50.428Z,18.80
2017-09-26T18:09:18.007Z,18.70
2017-09-26T18:11:45.581Z,17.77
2017-09-26T18:14:13.175Z,17.47
2017-09-26T18:16:40.749Z,16.90
2017-09-26T18:19:08.333Z,16.60
2017-09-26T18:21:36.681Z,16.27
2017-09-26T18:24:04.244Z,16.77
2017-09-26T18:26:31.836Z,15.70
2017-09-26T18:29:00.161Z,15.20
2017-09-26T18:31:27.759Z,15.33
2017-09-26T18:33:55.306Z,16.27
2017-09-26T18:36:22.866Z,17.27
2017-09-26T18:38:50.441Z,14.23
2017-09-26T18:41:18.005Z,15.70
2017-09-26T18:43:45.588Z,17.63
2017-09-26T18:46:13.915Z,16.60
2017-09-26T18:48:41.519Z,17.27
2017-09-26T18:51:09.898Z,17.87
2017-09-26T18:53:43.152Z,18.20
2017-09-26T18:56:13.091Z,19.40
2017-09-26T18:58:44.697Z,18.70
2017-09-26T19:01:15.967Z,16.70
2017-09-26T19:03:44.344Z,16.57
2017-09-26T19:06:16.146Z,16.70
2017-09-26T19:08:43.740Z,16.97
2017-09-26T19:11:13.915Z,16.30
2017-09-26T19:13:44.866Z,17.57
2017-09-26T19:16:13.355Z,16.23
2017-09-26T19:18:42.775Z,16.30
2017-09-26T19:21:16.122Z,17.53
2017-09-26T19:23:46.945Z,15.97
2017-09-26T19:26:19.171Z,17.63
2017-09-26T19:28:48.394Z,17.60
2017-09-26T19:31:17.324Z,17.30
2017-09-26T19:33:48.029Z,17.13
2017-09-26T19:36:17.107Z,17.10
2017-09-26T19:38:47.831Z,17.83
2017-09-26T19:41:16.910Z,17.40
2017-09-26T19:43:44.635Z,19.00
2017-09-26T19:46:15.021Z,19.63
2017-09-26T19:48:44.666Z,19.33
2017-09-26T19:51:14.581Z,18.30
2017-09-26T19:53:45.639Z,18.60
2017-09-26T19:56:22.861Z,18.03
2017-09-26T19:58:58.944Z,24.70
2017-09-26T20:01:26.519Z,25.90
2017-09-26T20:03:56.074Z,21.40
2017-09-26T20:06:27.593Z,21.43
2017-09-26T20:09:05.284Z,19.87
2017-09-26T20:11:35.594Z,19.70
2017-09-26T20:14:08.305Z,21.37
2017-09-26T20:16:39.924Z,22.40
2017-09-26T20:19:33.483Z,20.70
2017-09-26T20:22:01.874Z,21.40
2017-09-26T20:24:29.456Z,20.80
2017-09-26T20:26:57.023Z,20.87
2017-09-26T20:29:24.618Z,20.60
2017-09-26T20:34:30.754Z,21.00
2017-09-26T20:36:58.333Z,19.97
2017-09-26T20:39:27.765Z,22.40
2017-09-26T20:41:57.752Z,21.90
2017-09-26T20:44:26.734Z,21.70
2017-09-26T20:46:57.672Z,24.30
2017-09-26T20:49:26.937Z,22.90
2017-09-26T20:51:58.559Z,21.80
2017-09-26T20:54:27.628Z,22.60
2017-09-26T20:56:57.329Z,21.93
2017-09-26T20:59:26.682Z,21.50
2017-09-26T21:01:56.541Z,22.97
2017-09-26T21:04:26.708Z,24.60
2017-09-26T21:06:58.069Z,22.50
2017-09-26T21:09:26.462Z,21.60
2017-09-26T21:11:55.997Z,21.00
2017-09-26T21:14:27.651Z,20.90
2017-09-26T21:16:56.460Z,22.20
2017-09-26T21:19:28.698Z,28.10
2017-09-26T21:21:56.267Z,24.90
2017-09-26T21:24:23.837Z,22.90
2017-09-26T21:26:52.166Z,23.03
2017-09-26T21:29:19.731Z,22.10
2017-09-26T21:31:48.084Z,21.53
2017-09-26T21:34:15.656Z,22.70
2017-09-26T21:36:43.233Z,21.10
2017-09-26T21:39:11.569Z,22.60
2017-09-26T21:41:39.147Z,22.20
2017-09-26T21:44:06.737Z,24.23
2017-09-26T21:46:35.067Z,24.23
2017-09-26T21:49:02.661Z,23.40
2017-09-26T21:51:30.231Z,22.27
2017-09-26T21:53:58.566Z,22.40
2017-09-26T21:56:26.142Z,22.63
2017-09-26T21:58:53.723Z,23.33
2017-09-26T22:01:21.275Z,24.43
2017-09-26T22:03:48.852Z,22.03
2017-09-26T22:06:17.197Z,23.23
2017-09-26T22:08:44.797Z,22.60
2017-09-26T22:11:13.132Z,23.47
2017-09-26T22:13:40.697Z,22.97
2017-09-26T22:16:08.288Z,22.20
2017-09-26T22:18:36.634Z,22.40
2017-09-26T22:21:04.185Z,21.83
2017-09-26T22:23:31.766Z,22.50
2017-09-26T22:25:59.318Z,21.87
2017-09-26T22:28:26.901Z,23.30
2017-09-26T22:30:55.322Z,23.20
2017-09-26T22:33:22.899Z,22.30
2017-09-26T22:35:50.471Z,23.30
2017-09-26T22:38:18.060Z,22.97
2017-09-26T22:40:46.404Z,22.37
2017-09-26T22:43:13.973Z,21.93
2017-09-26T22:45:41.553Z,22.70
2017-09-26T22:48:09.895Z,23.07
2017-09-26T22:50:37.462Z,23.37
2017-09-26T22:53:05.028Z,23.60
2017-09-26T22:55:32.613Z,23.70
2017-09-26T22:58:00.171Z,22.30
2017-09-26T23:00:27.734Z,21.83
2017-09-26T23:02:56.070Z,23.00
2017-09-26T23:05:23.684Z,23.13
2017-09-26T23:07:52.096Z,22.60
2017-09-26T23:10:19.669Z,21.20
2017-09-26T23:12:47.318Z,27.80
2017-09-26T23:15:14.862Z,29.10
2017-09-26T23:17:42.430Z,24.17
2017-09-26T23:20:09.998Z,23.17
2017-09-26T23:22:37.585Z,21.73
2017-09-26T23:25:05.134Z,23.07
2017-09-26T23:27:32.692Z,22.97
2017-09-26T23:30:00.261Z,21.10
2017-09-26T23:32:27.816Z,22.33
2017-09-26T23:34:55.386Z,21.10
2017-09-26T23:37:23.018Z,20.70
2017-09-26T23:39:51.349Z,22.53
2017-09-26T23:42:18.897Z,21.90
2017-09-26T23:44:46.492Z,20.43
2017-09-26T23:47:14.061Z,21.10
2017-09-26T23:49:41.618Z,19.60
2017-09-26T23:52:09.202Z,20.13
2017-09-26T23:54:36.798Z,18.97
2017-09-26T23:57:04.363Z,19.63
2017-09-26T23:59:31.926Z,20.13
